Time;durP1;ratioP1;P1;durP2;ratioP2;P2;SDS_P1;SDS_P2;PMS_P1;PMS_P2;Temp;Humidity;BMP_temperature;BMP_pressure;BME280_temperature;BME280_humidity;BME280_pressure;Samples;Min_cycle;Max_cycle;Signal;HPM_P1;HPM_P2
2023/12/24 00:01:48;;;;;;;;;;;19.60;45.70;;;;;;5027836;28;20366;-61
2023/12/24 00:04:16;;;;;;;;;;;19.50;45.60;;;;;;5035852;28;19921;-61
2023/12/24 00:06:44;;;;;;;;;;;19.50;45.60;;;;;;5033726;28;19921;-62
2023/12/24 00:09:11;;;;;;;;;;;19.60;45.70;;;;;;5032546;28;19921;-62
2023/12/24 00:11:37;;;;;;;;;;;19.50;45.60;;;;;;5025148;28;19921;-63
2023/12/24 00:14:05;;;;;;;;;;;19.50;45.70;;;;;;5031303;28;19992;-63
2023/12/24 00:16:31;;;;;;;;;;;19.50;45.70;;;;;;5032268;28;20282;-63
2023/12/24 00:18:58;;;;;;;;;;;19.50;45.70;;;;;;5033253;28;19967;-62
2023/12/24 00:21:28;;;;;;;;;;;19.50;45.70;;;;;;5016945;28;19921;-62
2023/12/24 00:23:55;;;;;;;;;;;19.50;45.70;;;;;;5032623;28;19921;-62
2023/12/24 00:26:22;;;;;;;;;;;19.50;45.70;;;;;;5017185;28;19932;-62
2023/12/24 00:28:51;;;;;;;;;;;19.50;45.70;;;;;;5031234;28;19921;-63
2023/12/24 00:31:18;;;;;;;;;;;19.50;45.70;;;;;;5024414;28;19921;-62
2023/12/24 00:33:44;;;;;;;;;;;19.50;45.80;;;;;;5021151;28;19921;-62
2023/12/24 00:36:11;;;;;;;;;;;19.50;45.70;;;;;;5016252;28;19968;-62
2023/12/24 00:38:39;;;;;;;;;;;19.50;45.80;;;;;;5021466;28;19984;-62
2023/12/24 00:41:06;;;;;;;;;;;19.50;45.70;;;;;;5030055;28;19921;-62
2023/12/24 00:43:33;;;;;;;;;;;19.50;45.80;;;;;;5029956;28;19921;-63
2023/12/24 00:46:00;;;;;;;;;;;19.50;45.80;;;;;;5037323;28;19920;-63
2023/12/24 00:48:29;;;;;;;;;;;19.50;45.80;;;;;;5032105;28;19957;-63
2023/12/24 00:51:04;;;;;;;;;;;19.50;45.80;;;;;;5014923;28;20012;-63
2023/12/24 00:53:31;;;;;;;;;;;19.50;45.80;;;;;;5012898;28;19928;-62
2023/12/24 00:56:02;;;;;;;;;;;19.50;45.80;;;;;;5021842;28;19933;-61
2023/12/24 00:58:28;;;;;;;;;;;19.50;45.80;;;;;;5030149;28;19921;-61
2023/12/24 01:00:55;;;;;;;;;;;19.50;45.80;;;;;;5032803;28;19921;-61
2023/12/24 01:03:24;;;;;;;;;;;19.50;45.80;;;;;;5033356;28;19925;-61
2023/12/24 01:05:51;;;;;;;;;;;19.50;45.80;;;;;;5030849;28;19924;-61
2023/12/24 01:08:18;;;;;;;;;;;19.50;45.80;;;;;;5033407;28;19996;-61
2023/12/24 01:10:45;;;;;;;;;;;19.50;45.90;;;;;;5033623;28;19933;-62
2023/12/24 01:13:18;;;;;;;;;;;19.50;45.90;;;;;;5030291;28;19928;-62
2023/12/24 01:15:46;;;;;;;;;;;19.50;45.80;;;;;;5030654;28;19928;-61
2023/12/24 01:18:12;;;;;;;;;;;19.50;45.90;;;;;;5032291;28;19925;-62
2023/12/24 01:20:39;;;;;;;;;;;19.50;45.90;;;;;;5034799;28;19921;-62
2023/12/24 01:23:06;;;;;;;;;;;19.50;45.90;;;;;;5031308;28;19952;-62
2023/12/24 01:25:33;;;;;;;;;;;19.50;45.90;;;;;;5031493;28;19925;-62
2023/12/24 01:28:00;;;;;;;;;;;19.50;45.90;;;;;;5026836;28;19988;-62
2023/12/24 01:30:28;;;;;;;;;;;19.50;46.50;;;;;;5012511;28;19956;-62
2023/12/24 01:32:55;;;;;;;;;;;19.50;46.00;;;;;;5029559;28;19950;-62
2023/12/24 01:35:22;;;;;;;;;;;19.50;46.00;;;;;;5032457;28;19921;-61
2023/12/24 01:37:49;;;;;;;;;;;19.50;46.00;;;;;;5031793;28;19921;-62
2023/12/24 01:40:16;;;;;;;;;;;19.50;45.90;;;;;;5032015;28;19924;-62
2023/12/24 01:42:45;;;;;;;;;;;19.50;46.00;;;;;;5032361;28;19983;-62
2023/12/24 01:45:12;;;;;;;;;;;19.50;46.00;;;;;;5032633;28;19967;-62
2023/12/24 01:47:42;;;;;;;;;;;19.50;46.00;;;;;;5034695;28;19921;-62
2023/12/24 01:50:09;;;;;;;;;;;19.50;46.00;;;;;;5031294;28;19975;-61
2023/12/24 01:52:36;;;;;;;;;;;19.50;46.10;;;;;;5028779;28;20004;-63
2023/12/24 01:55:02;;;;;;;;;;;19.50;46.10;;;;;;5033538;28;19969;-63
2023/12/24 01:57:30;;;;;;;;;;;19.50;46.10;;;;;;5034012;28;19925;-63
2023/12/24 01:59:57;;;;;;;;;;;19.50;46.10;;;;;;5034570;28;19944;-63
2023/12/24 02:02:24;;;;;;;;;;;19.50;46.20;;;;;;5031349;28;19937;-62
2023/12/24 02:04:52;;;;;;;;;;;19.50;46.20;;;;;;5030072;28;19925;-62
2023/12/24 02:07:19;;;;;;;;;;;19.50;46.20;;;;;;5021846;28;20005;-61
2023/12/24 02:09:46;;;;;;;;;;;19.50;46.20;;;;;;5032897;28;19925;-62
2023/12/24 02:12:12;;;;;;;;;;;19.50;46.20;;;;;;5036425;28;19948;-62
2023/12/24 02:14:39;;;;;;;;;;;19.50;46.20;;;;;;5016256;28;19921;-62
2023/12/24 02:17:05;;;;;;;;;;;19.50;46.20;;;;;;5020824;28;19921;-62
2023/12/24 02:19:32;;;;;;;;;;;19.50;46.20;;;;;;5036691;28;19968;-62
2023/12/24 02:22:00;;;;;;;;;;;19.50;46.20;;;;;;5033661;28;19959;-61
2023/12/24 02:24:27;;;;;;;;;;;19.50;46.30;;;;;;5036274;28;19924;-61
2023/12/24 02:26:58;;;;;;;;;;;19.50;46.30;;;;;;5033039;28;19921;-62
2023/12/24 02:29:29;;;;;;;;;;;19.50;46.30;;;;;;5034415;28;20027;-62
2023/12/24 02:31:59;;;;;;;;;;;19.50;46.30;;;;;;5034878;28;19921;-62
2023/12/24 02:34:25;;;;;;;;;;;19.50;46.30;;;;;;5034525;28;19972;-62
2023/12/24 02:36:52;;;;;;;;;;;19.50;46.40;;;;;;5033589;28;19921;-62
2023/12/24 02:39:20;;;;;;;;;;;19.50;46.40;;;;;;5017387;28;19929;-62
2023/12/24 02:41:48;;;;;;;;;;;19.50;46.40;;;;;;5031041;28;19933;-62
2023/12/24 02:44:15;;;;;;;;;;;19.50;46.40;;;;;;5036789;28;19925;-62
2023/12/24 02:46:42;;;;;;;;;;;19.50;46.40;;;;;;5036492;28;19921;-62
2023/12/24 02:49:08;;;;;;;;;;;19.50;46.40;;;;;;5027499;28;19921;-62
2023/12/24 02:51:35;;;;;;;;;;;19.50;46.40;;;;;;5034143;28;19944;-62
2023/12/24 02:54:02;;;;;;;;;;;19.50;46.40;;;;;;5045264;28;19927;-63
2023/12/24 02:56:36;;;;;;;;;;;19.50;46.40;;;;;;5036821;28;19921;-62
2023/12/24 02:59:02;;;;;;;;;;;19.50;46.40;;;;;;5024066;28;19921;-62
2023/12/24 03:01:29;;;;;;;;;;;19.50;46.40;;;;;;5026646;28;19979;-62
2023/12/24 03:03:56;;;;;;;;;;;19.50;46.40;;;;;;5016188;28;19972;-62
2023/12/24 03:06:23;;;;;;;;;;;19.50;46.40;;;;;;5041547;28;19921;-62
2023/12/24 03:08:49;;;;;;;;;;;19.50;46.50;;;;;;5034691;28;19929;-62
2023/12/24 03:11:16;;;;;;;;;;;19.50;46.50;;;;;;5035802;28;19925;-62
2023/12/24 03:13:44;;;;;;;;;;;19.50;46.50;;;;;;5033737;28;19921;-62
2023/12/24 03:16:11;;;;;;;;;;;19.50;46.50;;;;;;5034268;28;19921;-62
2023/12/24 03:18:37;;;;;;;;;;;19.50;46.50;;;;;;5034067;28;19921;-62
2023/12/24 03:21:05;;;;;;;;;;;19.50;46.50;;;;;;5033729;28;19944;-62
2023/12/24 03:23:31;;;;;;;;;;;19.50;46.50;;;;;;5035861;28;19921;-62
2023/12/24 03:25:58;;;;;;;;;;;19.50;46.50;;;;;;5033361;28;19921;-62
2023/12/24 03:28:25;;;;;;;;;;;19.50;46.50;;;;;;5035571;28;19975;-62
2023/12/24 03:30:53;;;;;;;;;;;19.50;46.60;;;;;;5032813;28;19991;-62
2023/12/24 03:33:19;;;;;;;;;;;19.50;46.60;;;;;;5033720;28;20421;-62
2023/12/24 03:35:46;;;;;;;;;;;19.50;46.60;;;;;;5033169;28;19921;-62
2023/12/24 03:38:13;;;;;;;;;;;19.50;46.60;;;;;;5035243;28;19921;-62
2023/12/24 03:40:40;;;;;;;;;;;19.50;46.60;;;;;;5034081;28;19967;-62
2023/12/24 03:43:07;;;;;;;;;;;19.50;46.60;;;;;;5032045;28;19921;-62
2023/12/24 03:45:36;;;;;;;;;;;19.50;46.70;;;;;;5032738;28;19933;-62
2023/12/24 03:48:07;;;;;;;;;;;19.50;46.70;;;;;;5013642;28;20010;-62
2023/12/24 03:50:33;;;;;;;;;;;19.50;46.70;;;;;;5032271;28;19921;-62
2023/12/24 03:53:00;;;;;;;;;;;19.50;46.70;;;;;;5033308;28;19922;-63
2023/12/24 03:55:27;;;;;;;;;;;19.50;46.70;;;;;;5033037;28;19921;-62
2023/12/24 03:57:53;;;;;;;;;;;19.50;46.80;;;;;;5032924;28;19921;-62
2023/12/24 04:00:20;;;;;;;;;;;19.50;46.70;;;;;;5033860;28;19967;-62
2023/12/24 04:02:47;;;;;;;;;;;19.50;47.30;;;;;;5034672;28;19921;-62
2023/12/24 04:05:15;;;;;;;;;;;19.50;46.70;;;;;;5033013;28;19944;-62
2023/12/24 04:07:42;;;;;;;;;;;19.50;46.70;;;;;;5033559;28;19948;-62
2023/12/24 04:10:09;;;;;;;;;;;19.50;46.70;;;;;;5033233;28;19928;-62
2023/12/24 04:12:36;;;;;;;;;;;19.50;46.70;;;;;;5033689;28;19929;-62
2023/12/24 04:15:03;;;;;;;;;;;19.50;46.80;;;;;;5014304;28;19922;-62
2023/12/24 04:17:29;;;;;;;;;;;19.50;46.70;;;;;;5026202;28;19921;-62
2023/12/24 04:19:56;;;;;;;;;;;19.50;46.80;;;;;;5033615;28;19924;-62
2023/12/24 04:22:24;;;;;;;;;;;19.50;46.80;;;;;;5032539;28;19921;-63
2023/12/24 04:24:51;;;;;;;;;;;19.50;46.70;;;;;;5032869;28;19921;-62
2023/12/24 04:27:17;;;;;;;;;;;19.50;46.80;;;;;;5032244;28;19921;-62
2023/12/24 04:29:44;;;;;;;;;;;19.50;46.80;;;;;;5031645;28;19922;-62
2023/12/24 04:32:12;;;;;;;;;;;19.50;46.80;;;;;;5035498;28;19925;-62
2023/12/24 04:34:39;;;;;;;;;;;19.50;46.80;;;;;;5033536;28;20020;-62
2023/12/24 04:37:06;;;;;;;;;;;19.50;46.80;;;;;;5032362;28;19929;-62
2023/12/24 04:39:34;;;;;;;;;;;19.50;46.80;;;;;;5031290;28;19975;-62
2023/12/24 04:42:00;;;;;;;;;;;19.50;46.90;;;;;;5032471;28;19925;-62
2023/12/24 04:44:27;;;;;;;;;;;19.50;46.90;;;;;;5032301;28;19979;-60
2023/12/24 04:46:54;;;;;;;;;;;19.50;46.90;;;;;;5031180;28;19921;-62
2023/12/24 04:49:20;;;;;;;;;;;19.50;46.90;;;;;;5034985;28;19925;-62
2023/12/24 04:51:47;;;;;;;;;;;19.50;46.90;;;;;;5029596;28;19991;-62
2023/12/24 04:54:14;;;;;;;;;;;19.50;46.90;;;;;;5029103;28;19975;-62
2023/12/24 04:56:42;;;;;;;;;;;19.50;46.90;;;;;;5030808;28;19921;-62
2023/12/24 04:59:09;;;;;;;;;;;19.50;46.90;;;;;;5030653;28;19944;-62
2023/12/24 05:01:35;;;;;;;;;;;19.50;46.90;;;;;;5028854;28;19968;-62
2023/12/24 05:04:03;;;;;;;;;;;19.50;47.00;;;;;;5029608;28;20352;-62
2023/12/24 05:06:29;;;;;;;;;;;19.50;47.00;;;;;;5028968;28;19921;-62
2023/12/24 05:08:56;;;;;;;;;;;19.50;47.00;;;;;;5028230;28;19933;-62
2023/12/24 05:11:23;;;;;;;;;;;19.50;47.00;;;;;;5029129;28;19921;-62
2023/12/24 05:13:51;;;;;;;;;;;19.50;47.00;;;;;;5029880;28;19925;-62
2023/12/24 05:16:17;;;;;;;;;;;19.50;47.00;;;;;;5030728;28;19948;-62
2023/12/24 05:18:44;;;;;;;;;;;19.50;47.00;;;;;;5030747;28;19921;-62
2023/12/24 05:21:11;;;;;;;;;;;19.50;47.00;;;;;;5029636;28;19999;-62
2023/12/24 05:23:37;;;;;;;;;;;19.50;47.00;;;;;;5029822;28;19975;-62
2023/12/24 05:26:04;;;;;;;;;;;19.50;47.00;;;;;;5029406;28;19977;-62
2023/12/24 05:28:31;;;;;;;;;;;19.50;47.00;;;;;;5029713;28;19929;-62
2023/12/24 05:30:59;;;;;;;;;;;19.50;47.00;;;;;;5029562;28;19921;-62
2023/12/24 05:33:26;;;;;;;;;;;19.50;47.00;;;;;;5033349;28;19987;-62
2023/12/24 05:35:53;;;;;;;;;;;19.50;47.00;;;;;;5030145;28;19921;-62
2023/12/24 05:38:20;;;;;;;;;;;19.50;47.00;;;;;;5031803;28;19928;-63
2023/12/24 05:40:46;;;;;;;;;;;19.50;47.00;;;;;;5031254;28;19975;-62
2023/12/24 05:43:13;;;;;;;;;;;19.50;47.00;;;;;;5024904;28;19921;-62
2023/12/24 05:45:40;;;;;;;;;;;19.50;47.00;;;;;;5032751;28;19944;-62
2023/12/24 05:48:08;;;;;;;;;;;19.50;47.10;;;;;;5034645;28;20317;-62
2023/12/24 05:50:35;;;;;;;;;;;19.50;47.70;;;;;;5034821;28;19921;-62
2023/12/24 05:53:01;;;;;;;;;;;19.50;47.10;;;;;;5034685;28;19949;-62
2023/12/24 05:55:28;;;;;;;;;;;19.50;47.10;;;;;;5035909;28;19928;-62
2023/12/24 05:57:55;;;;;;;;;;;19.50;47.10;;;;;;5034581;28;19944;-62
2023/12/24 06:00:22;;;;;;;;;;;19.50;47.10;;;;;;5033254;28;19925;-62
2023/12/24 06:02:49;;;;;;;;;;;19.50;47.10;;;;;;5035823;28;19921;-62
2023/12/24 06:05:17;;;;;;;;;;;19.50;47.10;;;;;;5036409;28;19928;-62
2023/12/24 06:07:44;;;;;;;;;;;19.50;47.10;;;;;;5032581;28;19967;-62
2023/12/24 06:10:11;;;;;;;;;;;19.50;47.10;;;;;;5035912;28;19921;-62
2023/12/24 06:12:37;;;;;;;;;;;19.50;47.10;;;;;;5027420;28;19967;-61
2023/12/24 06:15:05;;;;;;;;;;;19.50;47.10;;;;;;5026579;28;19987;-62
2023/12/24 06:17:31;;;;;;;;;;;19.50;47.20;;;;;;5034541;28;19921;-62
2023/12/24 06:19:58;;;;;;;;;;;19.50;47.20;;;;;;5032438;28;19994;-62
2023/12/24 06:22:27;;;;;;;;;;;19.50;47.20;;;;;;5034419;28;19925;-62
2023/12/24 06:24:53;;;;;;;;;;;19.50;47.10;;;;;;5033465;28;19921;-62
2023/12/24 06:27:20;;;;;;;;;;;19.50;47.20;;;;;;5034094;28;19925;-62
2023/12/24 06:29:47;;;;;;;;;;;19.50;47.10;;;;;;5033730;28;19929;-62
2023/12/24 06:32:14;;;;;;;;;;;19.50;47.20;;;;;;5033598;28;19972;-62
2023/12/24 06:34:41;;;;;;;;;;;19.50;47.20;;;;;;5036550;28;19943;-62
2023/12/24 06:37:08;;;;;;;;;;;19.50;47.20;;;;;;5033041;28;19921;-62
2023/12/24 06:39:36;;;;;;;;;;;19.50;47.20;;;;;;5034314;28;19975;-62
2023/12/24 06:42:03;;;;;;;;;;;19.50;47.20;;;;;;5033457;28;19921;-62
2023/12/24 06:44:30;;;;;;;;;;;19.50;47.20;;;;;;5036205;28;19925;-62
2023/12/24 06:46:56;;;;;;;;;;;19.50;47.20;;;;;;5033517;28;19921;-62
2023/12/24 06:49:23;;;;;;;;;;;19.50;47.20;;;;;;5021254;28;19925;-62
2023/12/24 06:51:50;;;;;;;;;;;19.50;47.20;;;;;;5033830;28;19971;-62
2023/12/24 06:54:16;;;;;;;;;;;19.50;47.20;;;;;;5033128;28;19983;-62
2023/12/24 06:56:45;;;;;;;;;;;19.50;47.20;;;;;;5033519;28;19929;-62
2023/12/24 06:59:12;;;;;;;;;;;19.50;47.20;;;;;;5033285;28;19921;-62
2023/12/24 07:01:38;;;;;;;;;;;19.50;47.30;;;;;;5036435;28;19921;-62
2023/12/24 07:04:05;;;;;;;;;;;19.50;47.20;;;;;;5016112;28;19927;-62
2023/12/24 07:06:32;;;;;;;;;;;19.50;47.20;;;;;;5033596;28;19921;-62
2023/12/24 07:08:58;;;;;;;;;;;19.50;47.30;;;;;;5033304;28;19921;-61
2023/12/24 07:11:25;;;;;;;;;;;19.50;47.20;;;;;;5031939;28;19925;-62
2023/12/24 07:13:54;;;;;;;;;;;19.50;47.30;;;;;;5033136;28;19925;-62
2023/12/24 07:16:20;;;;;;;;;;;19.50;47.30;;;;;;5026995;28;19925;-62
2023/12/24 07:18:47;;;;;;;;;;;19.50;47.30;;;;;;5031502;28;19925;-62
2023/12/24 07:21:14;;;;;;;;;;;19.50;47.30;;;;;;5032334;28;19951;-61
2023/12/24 07:23:41;;;;;;;;;;;19.50;47.30;;;;;;5033882;28;19924;-62
2023/12/24 07:26:08;;;;;;;;;;;19.50;47.30;;;;;;5034503;28;19928;-62
2023/12/24 07:28:35;;;;;;;;;;;19.50;47.30;;;;;;5041233;28;19921;-62
2023/12/24 07:31:03;;;;;;;;;;;19.50;47.30;;;;;;5033561;28;19983;-62
2023/12/24 07:33:30;;;;;;;;;;;19.50;47.30;;;;;;5033880;28;19963;-62
2023/12/24 07:35:57;;;;;;;;;;;19.50;47.30;;;;;;5034978;28;19929;-62
2023/12/24 07:38:29;;;;;;;;;;;19.50;47.30;;;;;;5025758;28;19925;-62
2023/12/24 07:40:55;;;;;;;;;;;19.50;47.30;;;;;;5034011;28;20008;-62
2023/12/24 07:43:22;;;;;;;;;;;19.50;47.40;;;;;;5040276;28;19928;-62
2023/12/24 07:45:52;;;;;;;;;;;19.50;47.40;;;;;;5030443;28;19928;-62
2023/12/24 07:48:20;;;;;;;;;;;19.50;47.30;;;;;;5032745;28;19921;-62
2023/12/24 07:50:47;;;;;;;;;;;19.50;47.40;;;;;;5028542;28;20027;-62
2023/12/24 07:53:13;;;;;;;;;;;19.50;47.30;;;;;;5031990;28;20323;-62
2023/12/24 07:55:40;;;;;;;;;;;19.50;47.30;;;;;;5030347;28;19921;-61
2023/12/24 07:58:07;;;;;;;;;;;19.50;47.30;;;;;;5031714;28;19975;-62
2023/12/24 08:00:34;;;;;;;;;;;19.50;47.30;;;;;;5028675;28;19933;-62
2023/12/24 08:03:00;;;;;;;;;;;19.50;47.30;;;;;;5029265;28;19963;-62
2023/12/24 08:05:28;;;;;;;;;;;19.50;47.40;;;;;;5029652;28;19929;-62
2023/12/24 08:07:55;;;;;;;;;;;19.50;47.40;;;;;;5031312;28;19921;-61
2023/12/24 08:10:22;;;;;;;;;;;19.50;47.40;;;;;;5029430;28;19921;-62
2023/12/24 08:12:48;;;;;;;;;;;19.50;47.40;;;;;;5025229;28;19945;-62
2023/12/24 08:15:17;;;;;;;;;;;19.60;47.50;;;;;;5031392;28;19920;-62
2023/12/24 08:17:43;;;;;;;;;;;19.50;47.40;;;;;;5031771;28;19921;-62
2023/12/24 08:20:11;;;;;;;;;;;19.50;47.40;;;;;;5031327;28;19921;-62
2023/12/24 08:22:39;;;;;;;;;;;19.50;47.50;;;;;;5025410;28;19929;-62
2023/12/24 08:25:07;;;;;;;;;;;19.50;47.40;;;;;;5030255;28;20036;-62
2023/12/24 08:27:34;;;;;;;;;;;19.50;47.40;;;;;;5036013;28;19921;-62
2023/12/24 08:30:01;;;;;;;;;;;19.50;47.40;;;;;;5027077;28;19933;-62
2023/12/24 08:32:28;;;;;;;;;;;19.50;47.40;;;;;;5028184;28;19925;-62
2023/12/24 08:34:55;;;;;;;;;;;19.50;47.40;;;;;;5031574;28;19925;-62
2023/12/24 08:37:21;;;;;;;;;;;19.50;47.50;;;;;;5029299;28;19925;-62
2023/12/24 08:39:49;;;;;;;;;;;19.50;47.40;;;;;;5032104;28;20259;-62
2023/12/24 08:42:16;;;;;;;;;;;19.50;47.50;;;;;;5028553;28;19925;-62
2023/12/24 08:44:43;;;;;;;;;;;19.50;47.40;;;;;;5030141;28;19921;-62
2023/12/24 08:47:10;;;;;;;;;;;19.50;47.40;;;;;;5032066;28;19921;-62
2023/12/24 08:49:36;;;;;;;;;;;19.50;47.40;;;;;;5026106;28;19921;-62
2023/12/24 08:52:04;;;;;;;;;;;19.50;47.50;;;;;;5034429;28;19975;-62
2023/12/24 08:54:31;;;;;;;;;;;19.50;47.50;;;;;;5029167;28;19921;-62
2023/12/24 08:56:59;;;;;;;;;;;19.50;47.50;;;;;;5029469;28;19961;-62
2023/12/24 08:59:25;;;;;;;;;;;19.60;47.60;;;;;;5021317;28;19921;-62
2023/12/24 09:01:53;;;;;;;;;;;19.50;47.50;;;;;;5030432;28;19921;-62
2023/12/24 09:04:20;;;;;;;;;;;19.50;47.50;;;;;;5024572;28;19921;-62
2023/12/24 09:06:47;;;;;;;;;;;19.60;47.60;;;;;;5025548;28;19984;-62
2023/12/24 09:09:13;;;;;;;;;;;19.50;47.40;;;;;;5026196;28;19968;-62
2023/12/24 09:11:40;;;;;;;;;;;19.50;47.40;;;;;;5034400;28;19921;-62
2023/12/24 09:14:09;;;;;;;;;;;19.60;47.60;;;;;;5030615;28;19967;-62
2023/12/24 09:16:36;;;;;;;;;;;19.60;47.50;;;;;;5030448;28;19928;-62
2023/12/24 09:19:02;;;;;;;;;;;19.60;47.60;;;;;;5027294;28;19934;-62
2023/12/24 09:21:29;;;;;;;;;;;19.50;47.40;;;;;;5036369;28;19925;-60
2023/12/24 09:23:58;;;;;;;;;;;19.60;47.60;;;;;;5038002;28;19925;-60
2023/12/24 09:26:25;;;;;;;;;;;19.60;47.50;;;;;;5036838;28;19928;-61
2023/12/24 09:28:52;;;;;;;;;;;19.60;47.50;;;;;;5033159;28;19925;-61
2023/12/24 09:31:20;;;;;;;;;;;19.60;47.50;;;;;;5019257;28;19975;-62
2023/12/24 09:33:46;;;;;;;;;;;19.60;47.50;;;;;;5021101;28;19921;-61
2023/12/24 09:36:13;;;;;;;;;;;19.60;47.60;;;;;;5020411;28;20000;-62
2023/12/24 09:38:40;;;;;;;;;;;19.60;47.50;;;;;;5020478;28;19927;-61
2023/12/24 09:41:07;;;;;;;;;;;19.50;47.40;;;;;;5037212;28;19929;-61
2023/12/24 09:43:35;;;;;;;;;;;19.60;47.50;;;;;;5036929;28;19968;-61
2023/12/24 09:46:02;;;;;;;;;;;19.60;47.50;;;;;;5039994;28;19921;-62
2023/12/24 09:48:30;;;;;;;;;;;19.50;47.40;;;;;;5037563;28;19979;-61
2023/12/24 09:50:56;;;;;;;;;;;19.50;47.40;;;;;;5033332;28;19975;-61
2023/12/24 09:53:23;;;;;;;;;;;19.60;47.50;;;;;;5035440;28;20317;-61
2023/12/24 09:55:50;;;;;;;;;;;19.60;47.50;;;;;;5031862;28;19925;-61
2023/12/24 09:58:17;;;;;;;;;;;19.60;47.40;;;;;;5035623;28;19975;-61
2023/12/24 10:00:44;;;;;;;;;;;19.60;47.40;;;;;;5035575;28;20015;-61
2023/12/24 10:03:11;;;;;;;;;;;19.60;47.40;;;;;;5035540;28;19921;-61
2023/12/24 10:05:52;;;;;;;;;;;19.60;47.40;;;;;;5036151;28;19921;-61
2023/12/24 10:08:20;;;;;;;;;;;19.60;47.40;;;;;;5033601;28;19925;-61
2023/12/24 10:10:47;;;;;;;;;;;19.60;47.30;;;;;;5035963;28;19921;-61
2023/12/24 10:13:14;;;;;;;;;;;19.60;47.30;;;;;;5037182;28;19933;-61
2023/12/24 10:15:40;;;;;;;;;;;19.60;47.30;;;;;;5035282;28;20023;-60
2023/12/24 10:18:16;;;;;;;;;;;19.60;47.30;;;;;;5035249;28;20059;-61
2023/12/24 10:20:42;;;;;;;;;;;19.60;47.30;;;;;;5035997;28;19993;-61
2023/12/24 10:23:09;;;;;;;;;;;19.60;47.30;;;;;;5035442;28;19929;-61
2023/12/24 10:25:37;;;;;;;;;;;19.60;47.30;;;;;;5035833;28;19980;-61
2023/12/24 10:28:05;;;;;;;;;;;19.60;47.30;;;;;;5034221;28;19975;-60
2023/12/24 10:30:31;;;;;;;;;;;19.60;47.30;;;;;;5035391;28;19928;-61
2023/12/24 10:33:07;;;;;;;;;;;19.60;47.30;;;;;;5031681;28;19929;-61
2023/12/24 10:35:34;;;;;;;;;;;19.60;47.30;;;;;;5030644;28;19976;-61
2023/12/24 10:38:06;;;;;;;;;;;19.60;47.30;;;;;;5032036;28;19920;-61
2023/12/24 10:40:32;;;;;;;;;;;19.60;47.30;;;;;;5032333;28;19967;-61
2023/12/24 10:43:01;;;;;;;;;;;19.60;47.40;;;;;;5028285;28;19925;-61
2023/12/24 10:45:27;;;;;;;;;;;19.60;47.40;;;;;;5026073;28;20383;-61
2023/12/24 10:47:54;;;;;;;;;;;19.60;47.40;;;;;;5034998;28;19921;-61
2023/12/24 10:50:21;;;;;;;;;;;19.60;47.50;;;;;;5032071;28;19951;-61
2023/12/24 10:52:48;;;;;;;;;;;19.60;47.50;;;;;;5032465;28;20016;-61
2023/12/24 10:55:15;;;;;;;;;;;19.60;47.50;;;;;;5035953;28;20015;-61
2023/12/24 10:57:45;;;;;;;;;;;19.60;47.40;;;;;;5036515;28;19944;-61
2023/12/24 11:00:14;;;;;;;;;;;19.60;47.50;;;;;;5027429;28;19921;-61
2023/12/24 11:02:43;;;;;;;;;;;19.60;47.40;;;;;;5028465;28;19921;-61
2023/12/24 11:05:10;;;;;;;;;;;19.60;47.40;;;;;;5030593;28;20425;-61
2023/12/24 11:07:38;;;;;;;;;;;19.60;47.40;;;;;;5030837;28;19975;-62
2023/12/24 11:10:05;;;;;;;;;;;19.60;47.40;;;;;;5030840;28;19983;-61
2023/12/24 11:12:32;;;;;;;;;;;19.60;47.50;;;;;;5027927;28;19928;-61
2023/12/24 11:14:59;;;;;;;;;;;19.60;47.50;;;;;;5033394;28;19921;-61
2023/12/24 11:17:44;;;;;;;;;;;19.60;47.40;;;;;;5026966;28;19921;-61
2023/12/24 11:20:32;;;;;;;;;;;19.60;47.50;;;;;;5032185;28;19951;-61
2023/12/24 11:23:10;;;;;;;;;;;19.60;47.40;;;;;;5028783;28;19933;-61
2023/12/24 11:25:37;;;;;;;;;;;19.60;47.50;;;;;;5029286;28;19971;-61
2023/12/24 11:28:03;;;;;;;;;;;19.60;47.40;;;;;;5033371;28;19971;-61
2023/12/24 11:30:30;;;;;;;;;;;19.60;47.50;;;;;;5038299;28;19925;-61
2023/12/24 11:32:57;;;;;;;;;;;19.60;47.40;;;;;;5039676;28;19970;-61
2023/12/24 11:35:38;;;;;;;;;;;19.60;47.50;;;;;;5033313;28;20038;-61
2023/12/24 11:38:20;;;;;;;;;;;19.60;47.40;;;;;;5031542;28;19932;-61
2023/12/24 11:40:48;;;;;;;;;;;19.60;47.50;;;;;;5027677;28;19921;-61
2023/12/24 11:43:15;;;;;;;;;;;19.60;47.40;;;;;;5044958;28;19921;-61
2023/12/24 11:45:41;;;;;;;;;;;19.60;47.50;;;;;;5033254;28;19924;-61
2023/12/24 11:48:08;;;;;;;;;;;19.60;47.50;;;;;;5029158;28;19921;-61
2023/12/24 11:50:35;;;;;;;;;;;19.70;47.50;;;;;;5030035;28;19952;-61
2023/12/24 11:53:03;;;;;;;;;;;19.60;47.50;;;;;;5037050;28;19936;-61
2023/12/24 11:55:29;;;;;;;;;;;19.60;47.50;;;;;;5029135;28;19928;-61
2023/12/24 11:57:57;;;;;;;;;;;19.70;47.50;;;;;;5032743;28;19928;-61
2023/12/24 12:00:25;;;;;;;;;;;19.60;47.50;;;;;;5028553;28;19921;-61
2023/12/24 12:02:53;;;;;;;;;;;19.70;47.50;;;;;;5034836;28;19925;-61
2023/12/24 12:05:20;;;;;;;;;;;19.60;47.50;;;;;;5031734;28;19967;-61
2023/12/24 12:07:46;;;;;;;;;;;19.70;47.60;;;;;;5036319;28;19925;-61
2023/12/24 12:10:13;;;;;;;;;;;19.70;47.60;;;;;;5027644;28;19944;-61
2023/12/24 12:12:40;;;;;;;;;;;19.70;47.60;;;;;;5024740;28;19925;-61
2023/12/24 12:15:08;;;;;;;;;;;19.60;47.50;;;;;;5030656;28;19921;-62
2023/12/24 12:17:35;;;;;;;;;;;19.60;47.50;;;;;;5040070;28;19929;-61
2023/12/24 12:20:02;;;;;;;;;;;19.70;47.60;;;;;;5022580;28;19925;-61
2023/12/24 12:22:29;;;;;;;;;;;19.60;47.50;;;;;;5033714;28;19925;-61
2023/12/24 12:24:56;;;;;;;;;;;19.70;47.60;;;;;;5038226;28;19925;-61
2023/12/24 12:27:24;;;;;;;;;;;19.60;47.50;;;;;;5037434;28;19925;-62
2023/12/24 12:29:51;;;;;;;;;;;19.70;47.60;;;;;;5032775;28;19925;-61
2023/12/24 12:32:19;;;;;;;;;;;19.70;47.60;;;;;;5023329;28;19934;-61
2023/12/24 12:34:46;;;;;;;;;;;19.70;47.60;;;;;;5027697;28;19921;-61
2023/12/24 12:37:12;;;;;;;;;;;19.70;47.60;;;;;;5030449;28;19921;-61
2023/12/24 12:39:39;;;;;;;;;;;19.70;47.60;;;;;;5029806;28;19975;-61
2023/12/24 12:42:06;;;;;;;;;;;19.70;47.60;;;;;;5031686;28;19979;-61
2023/12/24 12:44:32;;;;;;;;;;;19.70;47.70;;;;;;5027253;28;19928;-59
2023/12/24 12:47:01;;;;;;;;;;;19.70;48.90;;;;;;5024652;28;19948;-60
2023/12/24 12:49:28;;;;;;;;;;;19.60;49.30;;;;;;5029111;28;19928;-57
2023/12/24 12:51:54;;;;;;;;;;;19.60;49.50;;;;;;5030819;28;19925;-61
2023/12/24 12:54:21;;;;;;;;;;;19.60;49.60;;;;;;5029934;28;19972;-58
2023/12/24 12:56:48;;;;;;;;;;;19.50;49.70;;;;;;5028244;28;19944;-61
2023/12/24 12:59:22;;;;;;;;;;;19.40;49.80;;;;;;5027289;28;20020;-59
2023/12/24 13:01:48;;;;;;;;;;;19.40;50.20;;;;;;5024767;28;20366;-58
2023/12/24 13:04:22;;;;;;;;;;;19.30;50.10;;;;;;5029327;28;19921;-57
2023/12/24 13:06:53;;;;;;;;;;;19.30;50.50;;;;;;5030219;28;19927;-61
2023/12/24 13:09:20;;;;;;;;;;;19.20;50.50;;;;;;5020822;28;19968;-58
2023/12/24 13:11:47;;;;;;;;;;;19.20;50.80;;;;;;5022003;28;19921;-58
2023/12/24 13:14:14;;;;;;;;;;;19.10;50.90;;;;;;5027334;28;19948;-63
2023/12/24 13:16:41;;;;;;;;;;;19.10;50.90;;;;;;5013098;28;19960;-61
2023/12/24 13:19:17;;;;;;;;;;;19.10;50.80;;;;;;5022585;28;19940;-60
2023/12/24 13:21:44;;;;;;;;;;;19.10;50.60;;;;;;5027978;28;19975;-61
2023/12/24 13:24:12;;;;;;;;;;;19.10;50.30;;;;;;5024099;28;19971;-60
2023/12/24 13:26:38;;;;;;;;;;;19.10;50.10;;;;;;5026389;28;19925;-61
2023/12/24 13:29:05;;;;;;;;;;;19.10;49.90;;;;;;5028632;28;19975;-61
2023/12/24 13:31:32;;;;;;;;;;;19.10;50.30;;;;;;5032503;28;19933;-61
2023/12/24 13:33:59;;;;;;;;;;;19.10;49.60;;;;;;5031421;28;19933;-61
2023/12/24 13:36:25;;;;;;;;;;;19.20;49.50;;;;;;5025700;28;19925;-61
2023/12/24 13:38:56;;;;;;;;;;;19.20;49.30;;;;;;5030669;28;19975;-61
2023/12/24 13:41:24;;;;;;;;;;;19.20;49.30;;;;;;5029016;28;20012;-61
2023/12/24 13:43:51;;;;;;;;;;;19.20;49.20;;;;;;5025726;28;19982;-61
2023/12/24 13:46:19;;;;;;;;;;;19.20;49.10;;;;;;5025894;28;19953;-61
2023/12/24 13:48:46;;;;;;;;;;;19.30;49.10;;;;;;5029137;28;19929;-62
2023/12/24 13:51:13;;;;;;;;;;;19.30;49.00;;;;;;5030967;28;19953;-62
2023/12/24 13:53:39;;;;;;;;;;;19.30;49.00;;;;;;5023958;28;20355;-60
2023/12/24 13:56:08;;;;;;;;;;;19.30;48.90;;;;;;5030607;28;19963;-61
2023/12/24 13:58:36;;;;;;;;;;;19.30;48.90;;;;;;5023448;28;19983;-63
2023/12/24 14:01:03;;;;;;;;;;;19.40;48.90;;;;;;5027768;28;19947;-63
2023/12/24 14:03:30;;;;;;;;;;;19.40;48.90;;;;;;5031120;28;19925;-63
2023/12/24 14:05:57;;;;;;;;;;;19.40;48.90;;;;;;5030008;28;19967;-63
2023/12/24 14:08:24;;;;;;;;;;;19.40;48.90;;;;;;5033993;28;20079;-62
2023/12/24 14:10:51;;;;;;;;;;;19.40;49.50;;;;;;5031211;28;19967;-62
2023/12/24 14:13:18;;;;;;;;;;;19.40;48.90;;;;;;5029995;28;19928;-62
2023/12/24 14:15:46;;;;;;;;;;;19.40;48.80;;;;;;5023363;28;19921;-61
2023/12/24 14:18:13;;;;;;;;;;;19.50;48.90;;;;;;5028282;28;20024;-62